sensor_id;sensor_type;location;lat;lon;timestamp;pressure;altitude;pressure_sealevel;temperature;humidity
28935;BME280;16044;52.726;-2.108;2023-06-26T00:01:59;100507.56;;;15.78;77.37
28935;BME280;16044;52.726;-2.108;2023-06-26T00:04:30;100514.47;;;15.74;78.00
28935;BME280;16044;52.726;-2.108;2023-06-26T00:07:03;100509.19;;;15.66;78.65
28935;BME280;16044;52.726;-2.108;2023-06-26T00:09:33;100514.88;;;15.71;78.05
28935;BME280;16044;52.726;-2.108;2023-06-26T00:12:05;100511.91;;;15.66;78.28
28935;BME280;16044;52.726;-2.108;2023-06-26T00:14:36;100519.50;;;15.64;78.39
28935;BME280;16044;52.726;-2.108;2023-06-26T00:17:06;100519.69;;;15.63;78.46
28935;BME280;16044;52.726;-2.108;2023-06-26T00:19:36;100515.47;;;15.53;79.06
28935;BME280;16044;52.726;-2.108;2023-06-26T00:22:09;100520.09;;;15.53;78.80
28935;BME280;16044;52.726;-2.108;2023-06-26T00:24:40;100523.47;;;15.48;79.31
28935;BME280;16044;52.726;-2.108;2023-06-26T00:27:11;100522.63;;;15.48;79.27
28935;BME280;16044;52.726;-2.108;2023-06-26T00:29:42;100527.88;;;15.43;79.40
28935;BME280;16044;52.726;-2.108;2023-06-26T00:32:12;100528.28;;;15.39;79.59
28935;BME280;16044;52.726;-2.108;2023-06-26T00:34:43;100531.41;;;15.36;79.38
28935;BME280;16044;52.726;-2.108;2023-06-26T00:37:16;100532.25;;;15.30;79.89
28935;BME280;16044;52.726;-2.108;2023-06-26T00:39:46;100531.41;;;15.30;79.67
28935;BME280;16044;52.726;-2.108;2023-06-26T00:42:17;100529.09;;;15.27;79.91
28935;BME280;16044;52.726;-2.108;2023-06-26T00:44:47;100540.84;;;15.20;80.29
28935;BME280;16044;52.726;-2.108;2023-06-26T00:47:18;100532.22;;;15.17;80.65
28935;BME280;16044;52.726;-2.108;2023-06-26T00:49:49;100538.50;;;15.11;80.59
28935;BME280;16044;52.726;-2.108;2023-06-26T00:52:22;100546.91;;;15.09;80.69
28935;BME280;16044;52.726;-2.108;2023-06-26T00:54:53;100549.84;;;15.08;80.77
28935;BME280;16044;52.726;-2.108;2023-06-26T00:57:24;100548.97;;;15.00;80.94
28935;BME280;16044;52.726;-2.108;2023-06-26T00:59:54;100541.41;;;15.02;80.84
28935;BME280;16044;52.726;-2.108;2023-06-26T01:02:25;100539.69;;;14.95;81.88
28935;BME280;16044;52.726;-2.108;2023-06-26T01:05:01;100553.34;;;14.95;81.40
28935;BME280;16044;52.726;-2.108;2023-06-26T01:07:36;100548.53;;;14.90;81.29
28935;BME280;16044;52.726;-2.108;2023-06-26T01:10:07;100546.19;;;14.87;81.53
28935;BME280;16044;52.726;-2.108;2023-06-26T01:12:38;100558.56;;;14.83;81.89
28935;BME280;16044;52.726;-2.108;2023-06-26T01:15:10;100555.59;;;14.78;82.20
28935;BME280;16044;52.726;-2.108;2023-06-26T01:17:41;100558.09;;;14.73;82.35
28935;BME280;16044;52.726;-2.108;2023-06-26T01:20:12;100553.69;;;14.72;82.28
28935;BME280;16044;52.726;-2.108;2023-06-26T01:22:56;100555.53;;;14.65;82.61
28935;BME280;16044;52.726;-2.108;2023-06-26T01:25:45;100568.72;;;14.61;82.67
28935;BME280;16044;52.726;-2.108;2023-06-26T01:28:29;100561.78;;;14.58;82.36
28935;BME280;16044;52.726;-2.108;2023-06-26T01:31:00;100568.66;;;14.54;83.36
28935;BME280;16044;52.726;-2.108;2023-06-26T01:33:31;100566.34;;;14.51;83.43
28935;BME280;16044;52.726;-2.108;2023-06-26T01:36:03;100574.28;;;14.46;83.86
28935;BME280;16044;52.726;-2.108;2023-06-26T01:38:34;100570.06;;;14.43;84.16
28935;BME280;16044;52.726;-2.108;2023-06-26T01:41:05;100570.91;;;14.44;83.53
28935;BME280;16044;52.726;-2.108;2023-06-26T01:43:43;100568.34;;;14.36;84.22
28935;BME280;16044;52.726;-2.108;2023-06-26T01:46:36;100574.84;;;14.35;84.29
28935;BME280;16044;52.726;-2.108;2023-06-26T01:49:15;100571.69;;;14.31;84.24
28935;BME280;16044;52.726;-2.108;2023-06-26T01:51:55;100573.53;;;14.31;84.55
28935;BME280;16044;52.726;-2.108;2023-06-26T01:54:30;100578.34;;;14.29;84.68
28935;BME280;16044;52.726;-2.108;2023-06-26T01:57:05;100576.69;;;14.28;84.75
28935;BME280;16044;52.726;-2.108;2023-06-26T01:59:40;100578.34;;;14.29;84.54
28935;BME280;16044;52.726;-2.108;2023-06-26T02:02:12;100572.66;;;14.23;85.06
28935;BME280;16044;52.726;-2.108;2023-06-26T02:04:43;100574.53;;;14.23;85.19
28935;BME280;16044;52.726;-2.108;2023-06-26T02:07:15;100575.78;;;14.20;85.26
28935;BME280;16044;52.726;-2.108;2023-06-26T02:09:46;100571.78;;;14.16;85.90
28935;BME280;16044;52.726;-2.108;2023-06-26T02:12:16;100567.34;;;14.15;85.91
28935;BME280;16044;52.726;-2.108;2023-06-26T02:14:49;100569.44;;;14.13;86.20
28935;BME280;16044;52.726;-2.108;2023-06-26T02:17:19;100570.25;;;14.14;85.67
28935;BME280;16044;52.726;-2.108;2023-06-26T02:19:50;100584.31;;;14.11;85.95
28935;BME280;16044;52.726;-2.108;2023-06-26T02:22:20;100578.22;;;14.09;85.99
28935;BME280;16044;52.726;-2.108;2023-06-26T02:24:50;100583.22;;;14.05;86.12
28935;BME280;16044;52.726;-2.108;2023-06-26T02:27:21;100578.78;;;14.04;85.54
28935;BME280;16044;52.726;-2.108;2023-06-26T02:29:53;100584.66;;;14.01;86.21
28935;BME280;16044;52.726;-2.108;2023-06-26T02:32:24;100588.41;;;14.00;86.23
28935;BME280;16044;52.726;-2.108;2023-06-26T02:34:54;100587.75;;;13.98;86.43
28935;BME280;16044;52.726;-2.108;2023-06-26T02:37:25;100599.03;;;13.95;86.99
28935;BME280;16044;52.726;-2.108;2023-06-26T02:39:55;100586.84;;;13.91;87.03
28935;BME280;16044;52.726;-2.108;2023-06-26T02:42:25;100594.84;;;13.92;86.57
28935;BME280;16044;52.726;-2.108;2023-06-26T02:44:58;100601.53;;;13.90;86.50
28935;BME280;16044;52.726;-2.108;2023-06-26T02:47:29;100602.09;;;13.85;87.17
28935;BME280;16044;52.726;-2.108;2023-06-26T02:49:59;100600.44;;;13.84;87.16
28935;BME280;16044;52.726;-2.108;2023-06-26T02:52:29;100598.53;;;13.84;87.25
28935;BME280;16044;52.726;-2.108;2023-06-26T02:55:00;100599.19;;;13.87;87.93
28935;BME280;16044;52.726;-2.108;2023-06-26T02:57:30;100606.13;;;13.89;88.63
28935;BME280;16044;52.726;-2.108;2023-06-26T03:00:03;100601.31;;;13.91;88.68
28935;BME280;16044;52.726;-2.108;2023-06-26T03:02:35;100594.03;;;13.98;88.32
28935;BME280;16044;52.726;-2.108;2023-06-26T03:05:06;100604.75;;;14.00;88.79
28935;BME280;16044;52.726;-2.108;2023-06-26T03:07:36;100605.84;;;14.06;89.09
28935;BME280;16044;52.726;-2.108;2023-06-26T03:10:07;100608.66;;;14.12;89.07
28935;BME280;16044;52.726;-2.108;2023-06-26T03:12:38;100614.13;;;14.19;88.42
28935;BME280;16044;52.726;-2.108;2023-06-26T03:15:11;100606.78;;;14.19;88.76
28935;BME280;16044;52.726;-2.108;2023-06-26T03:17:41;100602.25;;;14.27;88.20
28935;BME280;16044;52.726;-2.108;2023-06-26T03:20:12;100608.53;;;14.27;88.28
28935;BME280;16044;52.726;-2.108;2023-06-26T03:22:42;100607.97;;;14.32;87.36
28935;BME280;16044;52.726;-2.108;2023-06-26T03:25:12;100609.63;;;14.33;87.10
28935;BME280;16044;52.726;-2.108;2023-06-26T03:27:43;100616.53;;;14.29;87.15
28935;BME280;16044;52.726;-2.108;2023-06-26T03:30:16;100614.84;;;14.28;87.26
28935;BME280;16044;52.726;-2.108;2023-06-26T03:32:46;100631.22;;;14.28;87.28
28935;BME280;16044;52.726;-2.108;2023-06-26T03:35:17;100629.94;;;14.23;87.75
28935;BME280;16044;52.726;-2.108;2023-06-26T03:37:48;100636.41;;;14.22;87.95
28935;BME280;16044;52.726;-2.108;2023-06-26T03:40:19;100638.69;;;14.19;88.23
28935;BME280;16044;52.726;-2.108;2023-06-26T03:42:50;100641.22;;;14.20;87.60
28935;BME280;16044;52.726;-2.108;2023-06-26T03:45:23;100645.75;;;14.13;88.31
28935;BME280;16044;52.726;-2.108;2023-06-26T03:47:53;100651.63;;;14.10;88.15
28935;BME280;16044;52.726;-2.108;2023-06-26T03:50:24;100661.41;;;14.04;88.48
28935;BME280;16044;52.726;-2.108;2023-06-26T03:52:54;100659.06;;;14.01;88.97
28935;BME280;16044;52.726;-2.108;2023-06-26T03:55:26;100662.00;;;14.00;88.98
28935;BME280;16044;52.726;-2.108;2023-06-26T03:57:56;100669.78;;;14.03;88.69
28935;BME280;16044;52.726;-2.108;2023-06-26T04:00:29;100663.41;;;13.96;89.96
28935;BME280;16044;52.726;-2.108;2023-06-26T04:02:59;100669.59;;;14.04;89.57
28935;BME280;16044;52.726;-2.108;2023-06-26T04:05:31;100677.19;;;14.09;89.54
28935;BME280;16044;52.726;-2.108;2023-06-26T04:08:01;100668.84;;;14.17;89.38
28935;BME280;16044;52.726;-2.108;2023-06-26T04:10:32;100681.28;;;14.20;89.79
28935;BME280;16044;52.726;-2.108;2023-06-26T04:13:03;100680.53;;;14.33;89.26
28935;BME280;16044;52.726;-2.108;2023-06-26T04:15:36;100682.88;;;14.36;89.03
28935;BME280;16044;52.726;-2.108;2023-06-26T04:18:06;100680.13;;;14.36;89.29
28935;BME280;16044;52.726;-2.108;2023-06-26T04:20:39;100681.69;;;14.45;88.71
28935;BME280;16044;52.726;-2.108;2023-06-26T04:23:12;100689.78;;;14.38;89.31
28935;BME280;16044;52.726;-2.108;2023-06-26T04:25:42;100682.03;;;14.35;89.33
28935;BME280;16044;52.726;-2.108;2023-06-26T04:28:12;100686.03;;;14.39;88.68
28935;BME280;16044;52.726;-2.108;2023-06-26T04:30:45;100683.06;;;14.34;89.06
28935;BME280;16044;52.726;-2.108;2023-06-26T04:33:16;100686.88;;;14.40;88.85
28935;BME280;16044;52.726;-2.108;2023-06-26T04:35:46;100685.97;;;14.33;89.05
28935;BME280;16044;52.726;-2.108;2023-06-26T04:38:17;100690.03;;;14.37;88.66
28935;BME280;16044;52.726;-2.108;2023-06-26T04:40:48;100696.31;;;14.37;88.81
28935;BME280;16044;52.726;-2.108;2023-06-26T04:43:19;100700.06;;;14.36;89.03
28935;BME280;16044;52.726;-2.108;2023-06-26T04:45:52;100701.03;;;14.29;89.88
28935;BME280;16044;52.726;-2.108;2023-06-26T04:48:22;100699.59;;;14.33;89.73
28935;BME280;16044;52.726;-2.108;2023-06-26T04:50:54;100698.84;;;14.39;89.95
28935;BME280;16044;52.726;-2.108;2023-06-26T04:53:26;100692.53;;;14.38;90.02
28935;BME280;16044;52.726;-2.108;2023-06-26T04:55:56;100697.22;;;14.45;89.88
28935;BME280;16044;52.726;-2.108;2023-06-26T04:58:27;100712.06;;;14.42;90.29
28935;BME280;16044;52.726;-2.108;2023-06-26T05:01:00;100709.34;;;14.42;90.60
28935;BME280;16044;52.726;-2.108;2023-06-26T05:03:33;100712.47;;;14.60;90.31
28935;BME280;16044;52.726;-2.108;2023-06-26T05:06:04;100716.19;;;14.81;90.24
28935;BME280;16044;52.726;-2.108;2023-06-26T05:08:35;100723.16;;;15.18;89.72
28935;BME280;16044;52.726;-2.108;2023-06-26T05:11:06;100722.56;;;15.71;88.31
28935;BME280;16044;52.726;-2.108;2023-06-26T05:13:36;100724.81;;;16.29;85.92
28935;BME280;16044;52.726;-2.108;2023-06-26T05:16:09;100722.31;;;16.81;83.59
28935;BME280;16044;52.726;-2.108;2023-06-26T05:18:39;100726.69;;;17.22;81.25
28935;BME280;16044;52.726;-2.108;2023-06-26T05:21:10;100730.72;;;17.71;79.08
28935;BME280;16044;52.726;-2.108;2023-06-26T05:23:41;100730.97;;;18.08;77.19
28935;BME280;16044;52.726;-2.108;2023-06-26T05:26:13;100733.00;;;18.51;75.56
28935;BME280;16044;52.726;-2.108;2023-06-26T05:28:44;100741.81;;;18.85;73.87
28935;BME280;16044;52.726;-2.108;2023-06-26T05:31:19;100732.56;;;19.23;71.83
28935;BME280;16044;52.726;-2.108;2023-06-26T05:33:50;100735.16;;;19.55;69.87
28935;BME280;16044;52.726;-2.108;2023-06-26T05:36:22;100736.53;;;19.83;68.53
28935;BME280;16044;52.726;-2.108;2023-06-26T05:38:56;100741.06;;;20.08;67.93
28935;BME280;16044;52.726;-2.108;2023-06-26T05:41:27;100736.09;;;20.28;65.72
28935;BME280;16044;52.726;-2.108;2023-06-26T05:43:58;100747.97;;;20.40;64.81
28935;BME280;16044;52.726;-2.108;2023-06-26T05:46:31;100751.06;;;20.62;64.18
28935;BME280;16044;52.726;-2.108;2023-06-26T05:49:01;100751.19;;;20.79;63.55
28935;BME280;16044;52.726;-2.108;2023-06-26T05:51:32;100743.78;;;20.92;63.07
28935;BME280;16044;52.726;-2.108;2023-06-26T05:54:04;100740.16;;;21.15;61.78
28935;BME280;16044;52.726;-2.108;2023-06-26T05:56:35;100749.97;;;21.22;61.74
28935;BME280;16044;52.726;-2.108;2023-06-26T05:59:09;100748.06;;;21.35;60.42
28935;BME280;16044;52.726;-2.108;2023-06-26T06:01:43;100748.19;;;21.52;60.55
28935;BME280;16044;52.726;-2.108;2023-06-26T06:04:14;100756.97;;;21.77;59.98
28935;BME280;16044;52.726;-2.108;2023-06-26T06:06:44;100759.81;;;21.94;59.01
28935;BME280;16044;52.726;-2.108;2023-06-26T06:09:15;100762.91;;;21.98;57.91
28935;BME280;16044;52.726;-2.108;2023-06-26T06:11:45;100765.03;;;22.08;57.58
28935;BME280;16044;52.726;-2.108;2023-06-26T06:14:15;100760.31;;;22.20;57.67
28935;BME280;16044;52.726;-2.108;2023-06-26T06:16:48;100770.28;;;22.50;56.50
28935;BME280;16044;52.726;-2.108;2023-06-26T06:19:19;100759.88;;;22.57;55.28
28935;BME280;16044;52.726;-2.108;2023-06-26T06:21:49;100766.41;;;22.51;54.93
28935;BME280;16044;52.726;-2.108;2023-06-26T06:24:20;100764.88;;;22.43;55.00
28935;BME280;16044;52.726;-2.108;2023-06-26T06:26:50;100759.56;;;22.53;54.97
28935;BME280;16044;52.726;-2.108;2023-06-26T06:29:20;100764.44;;;22.63;54.59
28935;BME280;16044;52.726;-2.108;2023-06-26T06:31:53;100764.91;;;22.60;54.96
28935;BME280;16044;52.726;-2.108;2023-06-26T06:34:24;100759.56;;;22.70;54.71
28935;BME280;16044;52.726;-2.108;2023-06-26T06:36:54;100763.84;;;22.78;54.32
28935;BME280;16044;52.726;-2.108;2023-06-26T06:39:24;100777.13;;;22.81;54.21
28935;BME280;16044;52.726;-2.108;2023-06-26T06:41:55;100780.13;;;22.63;54.11
28935;BME280;16044;52.726;-2.108;2023-06-26T06:44:25;100790.38;;;22.96;52.94
28935;BME280;16044;52.726;-2.108;2023-06-26T06:47:00;100787.34;;;22.64;53.08
28935;BME280;16044;52.726;-2.108;2023-06-26T06:49:30;100785.19;;;22.83;50.69
28935;BME280;16044;52.726;-2.108;2023-06-26T06:52:00;100784.34;;;22.99;48.49
28935;BME280;16044;52.726;-2.108;2023-06-26T06:54:31;100791.81;;;22.82;49.58
28935;BME280;16044;52.726;-2.108;2023-06-26T06:57:01;100797.41;;;22.87;49.82
28935;BME280;16044;52.726;-2.108;2023-06-26T06:59:32;100804.28;;;22.67;48.97
28935;BME280;16044;52.726;-2.108;2023-06-26T07:02:05;100808.44;;;22.70;48.81
28935;BME280;16044;52.726;-2.108;2023-06-26T07:04:36;100807.97;;;22.90;47.44
28935;BME280;16044;52.726;-2.108;2023-06-26T07:07:06;100805.13;;;22.85;47.62
28935;BME280;16044;52.726;-2.108;2023-06-26T07:09:36;100805.47;;;22.88;47.25
28935;BME280;16044;52.726;-2.108;2023-06-26T07:12:07;100812.72;;;23.06;46.65
28935;BME280;16044;52.726;-2.108;2023-06-26T07:14:39;100826.03;;;22.64;47.46
28935;BME280;16044;52.726;-2.108;2023-06-26T07:17:11;100832.38;;;22.64;46.34
28935;BME280;16044;52.726;-2.108;2023-06-26T07:19:42;100822.25;;;22.53;46.73
28935;BME280;16044;52.726;-2.108;2023-06-26T07:22:13;100817.41;;;22.60;45.64
28935;BME280;16044;52.726;-2.108;2023-06-26T07:24:46;100812.47;;;22.62;45.67
28935;BME280;16044;52.726;-2.108;2023-06-26T07:27:17;100813.38;;;22.68;46.07
28935;BME280;16044;52.726;-2.108;2023-06-26T07:29:47;100824.03;;;22.59;45.87
28935;BME280;16044;52.726;-2.108;2023-06-26T07:32:20;100828.03;;;22.51;46.30
28935;BME280;16044;52.726;-2.108;2023-06-26T07:34:51;100817.13;;;22.45;45.46
28935;BME280;16044;52.726;-2.108;2023-06-26T07:37:21;100822.53;;;22.11;46.34
28935;BME280;16044;52.726;-2.108;2023-06-26T07:39:52;100823.47;;;22.45;45.43
28935;BME280;16044;52.726;-2.108;2023-06-26T07:42:22;100826.66;;;22.37;45.80
28935;BME280;16044;52.726;-2.108;2023-06-26T07:44:52;100829.13;;;22.10;46.95
28935;BME280;16044;52.726;-2.108;2023-06-26T07:47:25;100827.28;;;22.56;46.66
28935;BME280;16044;52.726;-2.108;2023-06-26T07:49:56;100833.56;;;22.68;46.70
28935;BME280;16044;52.726;-2.108;2023-06-26T07:52:27;100840.00;;;22.28;45.82
28935;BME280;16044;52.726;-2.108;2023-06-26T07:54:57;100839.22;;;22.45;45.38
28935;BME280;16044;52.726;-2.108;2023-06-26T07:57:28;100844.56;;;22.34;45.20
28935;BME280;16044;52.726;-2.108;2023-06-26T07:59:59;100848.53;;;22.27;45.08
28935;BME280;16044;52.726;-2.108;2023-06-26T08:02:32;100846.34;;;21.88;44.45
28935;BME280;16044;52.726;-2.108;2023-06-26T08:05:02;100857.16;;;21.78;45.45
28935;BME280;16044;52.726;-2.108;2023-06-26T08:07:33;100857.44;;;21.65;45.78
28935;BME280;16044;52.726;-2.108;2023-06-26T08:10:04;100862.94;;;21.65;46.19
28935;BME280;16044;52.726;-2.108;2023-06-26T08:12:35;100868.69;;;21.63;46.19
28935;BME280;16044;52.726;-2.108;2023-06-26T08:15:08;100858.75;;;21.50;46.29
28935;BME280;16044;52.726;-2.108;2023-06-26T08:17:41;100872.28;;;21.40;47.35
28935;BME280;16044;52.726;-2.108;2023-06-26T08:20:12;100864.69;;;21.12;47.69
28935;BME280;16044;52.726;-2.108;2023-06-26T08:22:42;100864.34;;;21.32;47.10
28935;BME280;16044;52.726;-2.108;2023-06-26T08:25:14;100869.09;;;21.01;48.42
28935;BME280;16044;52.726;-2.108;2023-06-26T08:27:45;100866.13;;;21.14;47.76
28935;BME280;16044;52.726;-2.108;2023-06-26T08:30:15;100869.84;;;21.32;47.55
28935;BME280;16044;52.726;-2.108;2023-06-26T08:32:48;100864.59;;;21.42;46.98
28935;BME280;16044;52.726;-2.108;2023-06-26T08:35:19;100865.69;;;21.53;47.52
28935;BME280;16044;52.726;-2.108;2023-06-26T08:37:49;100862.47;;;21.56;47.11
28935;BME280;16044;52.726;-2.108;2023-06-26T08:40:21;100858.72;;;21.62;47.19
28935;BME280;16044;52.726;-2.108;2023-06-26T08:42:51;100865.69;;;21.53;47.47
28935;BME280;16044;52.726;-2.108;2023-06-26T08:45:22;100870.56;;;21.15;47.78
28935;BME280;16044;52.726;-2.108;2023-06-26T08:48:00;100875.72;;;21.12;47.81
28935;BME280;16044;52.726;-2.108;2023-06-26T08:50:34;100873.34;;;21.15;47.53
28935;BME280;16044;52.726;-2.108;2023-06-26T08:53:11;100862.59;;;20.83;48.17
28935;BME280;16044;52.726;-2.108;2023-06-26T08:55:47;100863.81;;;20.88;47.95
28935;BME280;16044;52.726;-2.108;2023-06-26T08:58:20;100860.22;;;20.57;49.15
28935;BME280;16044;52.726;-2.108;2023-06-26T09:00:52;100857.16;;;20.65;48.83
28935;BME280;16044;52.726;-2.108;2023-06-26T09:03:25;100856.91;;;20.36;50.18
28935;BME280;16044;52.726;-2.108;2023-06-26T09:05:57;100858.97;;;20.53;49.88
28935;BME280;16044;52.726;-2.108;2023-06-26T09:08:28;100876.28;;;20.41;50.19
28935;BME280;16044;52.726;-2.108;2023-06-26T09:10:58;100874.78;;;20.45;50.60
28935;BME280;16044;52.726;-2.108;2023-06-26T09:13:30;100878.38;;;20.28;51.17
28935;BME280;16044;52.726;-2.108;2023-06-26T09:16:04;100877.47;;;20.34;50.36
28935;BME280;16044;52.726;-2.108;2023-06-26T09:18:40;100879.16;;;20.35;50.72
28935;BME280;16044;52.726;-2.108;2023-06-26T09:21:11;100878.06;;;20.36;50.99
28935;BME280;16044;52.726;-2.108;2023-06-26T09:23:41;100874.06;;;20.50;50.18
28935;BME280;16044;52.726;-2.108;2023-06-26T09:26:14;100871.31;;;20.69;49.54
28935;BME280;16044;52.726;-2.108;2023-06-26T09:28:44;100870.50;;;20.80;48.73
28935;BME280;16044;52.726;-2.108;2023-06-26T09:31:15;100868.66;;;21.04;47.99
28935;BME280;16044;52.726;-2.108;2023-06-26T09:34:09;100877.53;;;21.30;48.20
28935;BME280;16044;52.726;-2.108;2023-06-26T09:36:40;100893.75;;;21.61;47.36
28935;BME280;16044;52.726;-2.108;2023-06-26T09:39:13;100883.91;;;21.77;46.52
28935;BME280;16044;52.726;-2.108;2023-06-26T09:41:44;100869.72;;;21.97;45.03
28935;BME280;16044;52.726;-2.108;2023-06-26T09:44:14;100873.38;;;22.15;45.87
28935;BME280;16044;52.726;-2.108;2023-06-26T09:46:45;100878.09;;;22.14;45.30
28935;BME280;16044;52.726;-2.108;2023-06-26T09:49:19;100885.53;;;22.26;45.62
28935;BME280;16044;52.726;-2.108;2023-06-26T09:51:50;100880.13;;;22.31;45.47
28935;BME280;16044;52.726;-2.108;2023-06-26T09:54:21;100889.47;;;22.30;44.15
28935;BME280;16044;52.726;-2.108;2023-06-26T09:56:56;100892.59;;;22.33;42.90
28935;BME280;16044;52.726;-2.108;2023-06-26T09:59:37;100887.34;;;21.96;43.68
28935;BME280;16044;52.726;-2.108;2023-06-26T10:02:07;100894.94;;;21.89;43.76
28935;BME280;16044;52.726;-2.108;2023-06-26T10:04:41;100890.59;;;22.05;43.32
28935;BME280;16044;52.726;-2.108;2023-06-26T10:07:13;100898.25;;;22.15;42.58
28935;BME280;16044;52.726;-2.108;2023-06-26T10:09:45;100893.31;;;22.17;42.58
28935;BME280;16044;52.726;-2.108;2023-06-26T10:12:19;100889.94;;;22.38;42.35
28935;BME280;16044;52.726;-2.108;2023-06-26T10:14:56;100895.34;;;22.62;41.86
28935;BME280;16044;52.726;-2.108;2023-06-26T10:17:31;100898.41;;;22.77;42.04
28935;BME280;16044;52.726;-2.108;2023-06-26T10:20:09;100898.41;;;22.77;40.29
28935;BME280;16044;52.726;-2.108;2023-06-26T10:22:40;100915.25;;;22.93;41.33
28935;BME280;16044;52.726;-2.108;2023-06-26T10:25:17;100905.47;;;23.02;41.12
28935;BME280;16044;52.726;-2.108;2023-06-26T10:27:55;100911.53;;;22.99;41.12
28935;BME280;16044;52.726;-2.108;2023-06-26T10:30:29;100909.34;;;23.01;40.70
28935;BME280;16044;52.726;-2.108;2023-06-26T10:33:04;100914.00;;;23.12;40.05
28935;BME280;16044;52.726;-2.108;2023-06-26T10:35:43;100912.41;;;23.16;40.58
28935;BME280;16044;52.726;-2.108;2023-06-26T10:38:14;100916.81;;;23.01;41.49
28935;BME280;16044;52.726;-2.108;2023-06-26T10:40:46;100917.16;;;23.04;41.15
28935;BME280;16044;52.726;-2.108;2023-06-26T10:43:19;100911.13;;;23.07;39.53
28935;BME280;16044;52.726;-2.108;2023-06-26T10:45:49;100914.03;;;23.01;40.23
28935;BME280;16044;52.726;-2.108;2023-06-26T10:48:22;100920.53;;;23.06;40.67
28935;BME280;16044;52.726;-2.108;2023-06-26T10:50:55;100926.06;;;22.94;41.28
28935;BME280;16044;52.726;-2.108;2023-06-26T10:53:26;100928.59;;;22.96;40.80
28935;BME280;16044;52.726;-2.108;2023-06-26T10:56:03;100924.56;;;22.87;39.75
28935;BME280;16044;52.726;-2.108;2023-06-26T10:58:41;100922.34;;;22.72;40.94
28935;BME280;16044;52.726;-2.108;2023-06-26T11:01:23;100919.53;;;22.84;40.02
28935;BME280;16044;52.726;-2.108;2023-06-26T11:04:03;100922.13;;;22.90;40.34
28935;BME280;16044;52.726;-2.108;2023-06-26T11:06:38;100927.88;;;23.01;39.82
28935;BME280;16044;52.726;-2.108;2023-06-26T11:09:11;100922.53;;;23.28;40.60
28935;BME280;16044;52.726;-2.108;2023-06-26T11:11:59;100923.81;;;23.37;40.18
28935;BME280;16044;52.726;-2.108;2023-06-26T11:14:32;100919.59;;;23.68;39.21
28935;BME280;16044;52.726;-2.108;2023-06-26T11:17:04;100926.31;;;23.89;39.17
28935;BME280;16044;52.726;-2.108;2023-06-26T11:19:35;100926.63;;;23.76;37.72
28935;BME280;16044;52.726;-2.108;2023-06-26T11:22:08;100923.13;;;23.81;38.18
28935;BME280;16044;52.726;-2.108;2023-06-26T11:24:38;100923.22;;;23.69;39.55
28935;BME280;16044;52.726;-2.108;2023-06-26T11:27:09;100929.69;;;23.58;39.16
28935;BME280;16044;52.726;-2.108;2023-06-26T11:29:47;100938.38;;;23.32;39.15
28935;BME280;16044;52.726;-2.108;2023-06-26T11:32:18;100940.47;;;23.08;39.75
28935;BME280;16044;52.726;-2.108;2023-06-26T11:34:48;100934.28;;;23.18;39.61
28935;BME280;16044;52.726;-2.108;2023-06-26T11:37:22;100931.25;;;22.91;39.80
28935;BME280;16044;52.726;-2.108;2023-06-26T11:39:53;100928.75;;;23.18;39.87
28935;BME280;16044;52.726;-2.108;2023-06-26T11:42:24;100937.63;;;23.37;40.88
28935;BME280;16044;52.726;-2.108;2023-06-26T11:44:54;100926.56;;;23.54;40.00
28935;BME280;16044;52.726;-2.108;2023-06-26T11:47:24;100932.84;;;23.49;38.85
28935;BME280;16044;52.726;-2.108;2023-06-26T11:49:56;100944.09;;;23.43;39.09
28935;BME280;16044;52.726;-2.108;2023-06-26T11:52:32;100950.28;;;23.16;39.16
28935;BME280;16044;52.726;-2.108;2023-06-26T11:55:03;100943.25;;;23.25;39.61
28935;BME280;16044;52.726;-2.108;2023-06-26T11:57:34;100953.78;;;23.11;39.21
28935;BME280;16044;52.726;-2.108;2023-06-26T12:00:11;100958.91;;;22.91;39.25
28935;BME280;16044;52.726;-2.108;2023-06-26T12:02:44;100966.47;;;22.95;38.53
28935;BME280;16044;52.726;-2.108;2023-06-26T12:05:17;100967.06;;;22.97;39.59
28935;BME280;16044;52.726;-2.108;2023-06-26T12:07:51;100964.16;;;23.04;39.88
28935;BME280;16044;52.726;-2.108;2023-06-26T12:10:21;100967.03;;;23.09;39.63
28935;BME280;16044;52.726;-2.108;2023-06-26T12:12:52;100962.25;;;22.93;40.35
28935;BME280;16044;52.726;-2.108;2023-06-26T12:15:25;100959.91;;;22.85;41.18
28935;BME280;16044;52.726;-2.108;2023-06-26T12:17:56;100967.34;;;22.84;40.88
28935;BME280;16044;52.726;-2.108;2023-06-26T12:20:26;100970.53;;;22.64;40.98
28935;BME280;16044;52.726;-2.108;2023-06-26T12:23:02;100968.28;;;22.61;40.94
28935;BME280;16044;52.726;-2.108;2023-06-26T12:25:32;100967.06;;;22.69;41.38
28935;BME280;16044;52.726;-2.108;2023-06-26T12:28:03;100963.41;;;22.80;41.03
28935;BME280;16044;52.726;-2.108;2023-06-26T12:30:34;100955.00;;;22.75;40.56
28935;BME280;16044;52.726;-2.108;2023-06-26T12:33:12;100959.31;;;22.83;39.62
28935;BME280;16044;52.726;-2.108;2023-06-26T12:35:45;100967.88;;;22.69;39.81
28935;BME280;16044;52.726;-2.108;2023-06-26T12:38:18;100965.13;;;22.69;39.94
28935;BME280;16044;52.726;-2.108;2023-06-26T12:40:48;100968.81;;;22.46;41.12
28935;BME280;16044;52.726;-2.108;2023-06-26T12:43:28;100961.34;;;22.47;41.10
28935;BME280;16044;52.726;-2.108;2023-06-26T12:45:58;100959.19;;;22.49;41.71
28935;BME280;16044;52.726;-2.108;2023-06-26T12:48:38;100957.25;;;22.49;41.79
28935;BME280;16044;52.726;-2.108;2023-06-26T12:51:11;100957.25;;;22.61;40.52
28935;BME280;16044;52.726;-2.108;2023-06-26T12:53:45;100955.25;;;22.73;39.82
28935;BME280;16044;52.726;-2.108;2023-06-26T12:56:15;100954.22;;;22.91;40.58
28935;BME280;16044;52.726;-2.108;2023-06-26T12:58:47;100963.47;;;22.97;39.52
28935;BME280;16044;52.726;-2.108;2023-06-26T13:01:17;100961.50;;;23.09;38.75
28935;BME280;16044;52.726;-2.108;2023-06-26T13:03:47;100962.75;;;23.19;38.95
28935;BME280;16044;52.726;-2.108;2023-06-26T13:06:18;100961.69;;;23.20;37.98